Time;durP1;ratioP1;P1;durP2;ratioP2;P2;SDS_P1;SDS_P2;PMS_P1;PMS_P2;Temp;Humidity;BMP_temperature;BMP_pressure;BME280_temperature;BME280_humidity;BME280_pressure;Samples;Min_cycle;Max_cycle;Signal;HPM_P1;HPM_P2
2021/05/26 00:04:51;;;;;;;;;;;10.80;99.90;;;;;;10574623;28;19931;-68
2021/05/26 00:09:52;;;;;;;;;;;10.80;99.90;;;;;;10573629;28;20399;-69
2021/05/26 00:14:53;;;;;;;;;;;10.90;99.90;;;;;;10574390;28;20022;-69
2021/05/26 00:19:56;;;;;;;;;;;10.90;99.90;;;;;;10573889;28;20372;-69
2021/05/26 00:24:57;;;;;;;;;;;10.90;99.90;;;;;;10572221;28;20026;-69
2021/05/26 00:29:59;;;;;;;;;;;10.90;99.90;;;;;;10571931;28;20484;-69
2021/05/26 00:35:02;;;;;;;;;;;10.90;99.90;;;;;;10574067;28;20070;-69
2021/05/26 00:40:05;;;;;;;;;;;10.80;99.90;;;;;;10579053;28;19934;-69
2021/05/26 00:45:07;;;;;;;;;;;10.70;99.90;;;;;;10578036;28;20442;-69
2021/05/26 00:50:12;;;;;;;;;;;10.70;99.90;;;;;;10581268;28;20116;-69
2021/05/26 00:55:14;;;;;;;;;;;10.60;99.90;;;;;;10580730;28;19930;-69
2021/05/26 01:00:17;;;;;;;;;;;10.60;99.90;;;;;;10580537;28;20014;-69
2021/05/26 01:05:21;;;;;;;;;;;10.50;99.90;;;;;;10581354;28;19935;-69
2021/05/26 01:10:23;;;;;;;;;;;10.40;99.90;;;;;;10581066;28;19959;-69
2021/05/26 01:15:24;;;;;;;;;;;10.40;99.90;;;;;;10579496;28;19924;-69
2021/05/26 01:20:27;;;;;;;;;;;10.30;99.90;;;;;;10579376;28;20399;-69
2021/05/26 01:25:29;;;;;;;;;;;10.20;99.90;;;;;;10579576;28;20023;-69
2021/05/26 01:30:30;;;;;;;;;;;10.10;99.90;;;;;;10579443;28;19927;-69
2021/05/26 01:35:31;;;;;;;;;;;10.00;99.90;;;;;;10578362;28;19927;-69
2021/05/26 01:40:33;;;;;;;;;;;10.00;99.90;;;;;;10578428;28;19928;-69
2021/05/26 01:45:34;;;;;;;;;;;10.10;99.90;;;;;;10578170;28;19931;-69
2021/05/26 01:50:35;;;;;;;;;;;10.00;99.90;;;;;;10578385;28;19924;-69
2021/05/26 01:55:39;;;;;;;;;;;10.00;99.90;;;;;;10577414;28;20469;-69
2021/05/26 02:00:40;;;;;;;;;;;10.00;99.90;;;;;;10578098;28;19934;-69
2021/05/26 02:05:41;;;;;;;;;;;10.00;99.90;;;;;;10578060;28;19953;-69
2021/05/26 02:16:03;;;;;;;;;;;10.10;99.90;;;;;;10578635;28;20014;-69
2021/05/26 02:21:04;;;;;;;;;;;10.20;99.90;;;;;;10580341;28;20398;-69
2021/05/26 02:26:06;;;;;;;;;;;10.20;99.90;;;;;;10579541;28;19927;-69
2021/05/26 02:31:08;;;;;;;;;;;10.20;99.90;;;;;;10577843;28;19928;-69
2021/05/26 02:36:09;;;;;;;;;;;10.10;99.90;;;;;;10579608;28;19924;-69
2021/05/26 02:41:11;;;;;;;;;;;10.20;99.90;;;;;;10579387;28;19967;-69
2021/05/26 02:46:12;;;;;;;;;;;10.20;99.90;;;;;;10578375;28;20022;-69
2021/05/26 02:51:13;;;;;;;;;;;10.20;99.90;;;;;;10578932;28;19939;-69
2021/05/26 02:56:15;;;;;;;;;;;10.20;99.90;;;;;;10578350;28;19972;-69
2021/05/26 03:01:17;;;;;;;;;;;10.20;99.90;;;;;;10578194;28;19928;-69
2021/05/26 03:06:18;;;;;;;;;;;10.20;99.90;;;;;;10576946;28;19924;-69
2021/05/26 03:11:20;;;;;;;;;;;10.20;99.90;;;;;;10576896;28;19927;-69
2021/05/26 03:16:21;;;;;;;;;;;10.20;99.90;;;;;;10576788;28;20364;-69
2021/05/26 03:21:22;;;;;;;;;;;10.20;99.90;;;;;;10573764;28;20359;-69
2021/05/26 03:26:24;;;;;;;;;;;10.20;99.90;;;;;;10575036;28;19923;-69
2021/05/26 03:31:25;;;;;;;;;;;10.20;99.90;;;;;;10574822;28;20051;-69
2021/05/26 03:36:27;;;;;;;;;;;10.40;99.90;;;;;;10576586;28;19928;-69
2021/05/26 03:41:29;;;;;;;;;;;10.20;99.90;;;;;;10576250;28;19924;-69
2021/05/26 03:46:30;;;;;;;;;;;10.20;99.90;;;;;;10572628;28;19974;-69
2021/05/26 03:51:31;;;;;;;;;;;10.20;99.90;;;;;;10574673;28;19977;-69
2021/05/26 03:56:33;;;;;;;;;;;10.30;99.90;;;;;;10576361;28;19928;-69
2021/05/26 04:01:34;;;;;;;;;;;10.30;99.90;;;;;;10576908;28;19923;-69
2021/05/26 04:06:36;;;;;;;;;;;10.40;99.90;;;;;;10577086;28;19946;-69
2021/05/26 04:11:38;;;;;;;;;;;10.40;99.90;;;;;;10585318;28;20367;-69
2021/05/26 04:16:39;;;;;;;;;;;10.50;99.90;;;;;;10584904;28;19924;-69
2021/05/26 04:21:40;;;;;;;;;;;12.10;99.90;;;;;;10585042;28;19923;-69
2021/05/26 04:26:42;;;;;;;;;;;10.60;99.90;;;;;;10584633;28;19980;-70
2021/05/26 04:31:43;;;;;;;;;;;10.80;99.90;;;;;;10584656;28;19931;-69
2021/05/26 04:36:44;;;;;;;;;;;10.80;99.90;;;;;;10584375;28;19934;-69
2021/05/26 04:41:46;;;;;;;;;;;10.80;99.90;;;;;;10584016;28;19980;-69
2021/05/26 04:46:48;;;;;;;;;;;10.90;99.90;;;;;;10584054;28;19924;-69
2021/05/26 04:51:49;;;;;;;;;;;11.00;99.90;;;;;;10583641;28;19927;-69
2021/05/26 04:56:51;;;;;;;;;;;11.00;99.90;;;;;;10582989;28;19924;-69
2021/05/26 05:01:52;;;;;;;;;;;11.30;99.90;;;;;;10583150;28;19932;-69
2021/05/26 05:06:54;;;;;;;;;;;11.50;99.90;;;;;;10582541;28;19923;-70
2021/05/26 05:11:56;;;;;;;;;;;11.40;99.90;;;;;;10582411;28;20383;-69
2021/05/26 05:16:57;;;;;;;;;;;11.30;99.90;;;;;;10582205;28;20008;-69
2021/05/26 05:21:58;;;;;;;;;;;11.40;99.90;;;;;;10581407;28;19928;-69
2021/05/26 05:27:00;;;;;;;;;;;11.60;99.90;;;;;;10581567;28;20010;-70
2021/05/26 05:32:02;;;;;;;;;;;12.10;99.90;;;;;;10582222;28;20002;-70
2021/05/26 05:37:03;;;;;;;;;;;12.60;99.90;;;;;;10580277;28;19930;-70
2021/05/26 05:42:05;;;;;;;;;;;12.60;99.90;;;;;;10579502;28;19939;-70
2021/05/26 05:47:06;;;;;;;;;;;12.60;99.90;;;;;;10579592;28;19927;-70
2021/05/26 05:52:10;;;;;;;;;;;12.60;99.90;;;;;;10579546;28;19924;-69
2021/05/26 05:57:12;;;;;;;;;;;12.40;99.90;;;;;;10579570;28;19927;-69
2021/05/26 06:02:13;;;;;;;;;;;12.30;99.90;;;;;;10577190;28;19955;-69
2021/05/26 06:07:14;;;;;;;;;;;12.50;99.90;;;;;;10578613;28;19934;-69
2021/05/26 06:12:16;;;;;;;;;;;12.90;99.90;;;;;;10578048;28;20017;-70
2021/05/26 06:17:18;;;;;;;;;;;13.40;99.90;;;;;;10578575;28;19928;-69
2021/05/26 06:22:19;;;;;;;;;;;16.30;99.90;;;;;;10578210;28;19974;-69
2021/05/26 06:27:21;;;;;;;;;;;16.50;98.00;;;;;;10577186;28;19980;-69
2021/05/26 06:32:22;;;;;;;;;;;15.10;99.90;;;;;;10574258;28;19928;-69
2021/05/26 06:37:23;;;;;;;;;;;14.60;99.90;;;;;;10575314;28;19978;-69
2021/05/26 06:42:25;;;;;;;;;;;14.30;99.90;;;;;;10574193;28;19924;-69
2021/05/26 06:47:27;;;;;;;;;;;18.40;94.10;;;;;;10576137;28;20386;-69
2021/05/26 06:52:30;;;;;;;;;;;18.60;84.90;;;;;;10575474;28;19936;-69
2021/05/26 06:57:32;;;;;;;;;;;18.30;88.80;;;;;;10575309;28;20377;-69
2021/05/26 07:02:34;;;;;;;;;;;16.50;93.70;;;;;;10574327;28;20026;-67
2021/05/26 07:07:35;;;;;;;;;;;18.20;90.70;;;;;;10575982;28;20068;-69
2021/05/26 07:12:37;;;;;;;;;;;22.10;67.40;;;;;;10576538;28;20108;-70
2021/05/26 07:17:38;;;;;;;;;;;22.60;58.70;;;;;;10575219;28;20298;-69
2021/05/26 07:22:39;;;;;;;;;;;21.80;61.10;;;;;;10574652;28;19924;-69
2021/05/26 07:27:41;;;;;;;;;;;19.60;69.80;;;;;;10573979;28;20381;-69
2021/05/26 07:32:42;;;;;;;;;;;17.70;80.60;;;;;;10575097;28;19992;-69
2021/05/26 07:37:44;;;;;;;;;;;21.10;66.40;;;;;;10573876;28;20073;-69
2021/05/26 07:42:46;;;;;;;;;;;19.80;69.30;;;;;;10575789;28;19989;-68
2021/05/26 07:47:47;;;;;;;;;;;19.90;68.40;;;;;;10577987;28;20014;-69
2021/05/26 07:52:48;;;;;;;;;;;19.80;68.30;;;;;;10574828;28;19973;-70
2021/05/26 07:57:50;;;;;;;;;;;23.10;56.20;;;;;;10575562;28;19984;-69
2021/05/26 08:02:53;;;;;;;;;;;24.10;50.90;;;;;;10574518;28;20441;-69
2021/05/26 08:07:54;;;;;;;;;;;24.80;48.50;;;;;;10575350;28;19970;-69
2021/05/26 08:12:56;;;;;;;;;;;25.60;47.30;;;;;;10576450;28;19927;-68
2021/05/26 08:17:57;;;;;;;;;;;24.40;49.50;;;;;;10574361;28;19963;-67
2021/05/26 08:22:58;;;;;;;;;;;23.10;51.40;;;;;;10574390;28;19976;-69
2021/05/26 08:28:00;;;;;;;;;;;21.40;53.90;;;;;;10574017;28;19963;-68
2021/05/26 08:33:01;;;;;;;;;;;21.20;54.60;;;;;;10574909;28;20014;-66
2021/05/26 08:38:03;;;;;;;;;;;22.90;51.90;;;;;;10574506;28;19923;-68
2021/05/26 08:43:05;;;;;;;;;;;23.80;49.40;;;;;;10573998;28;20007;-69
2021/05/26 08:48:07;;;;;;;;;;;23.80;49.20;;;;;;10574132;28;19928;-68
2021/05/26 08:53:09;;;;;;;;;;;22.70;51.00;;;;;;10574318;28;19923;-68
2021/05/26 08:58:11;;;;;;;;;;;21.00;53.40;;;;;;10581210;28;20431;-69
2021/05/26 09:03:12;;;;;;;;;;;19.90;57.50;;;;;;10581951;28;19974;-69
2021/05/26 09:08:19;;;;;;;;;;;19.00;60.60;;;;;;10580949;28;20299;-70
2021/05/26 09:13:38;;;;;;;;;;;19.00;63.10;;;;;;10579579;28;20290;-68
2021/05/26 09:18:56;;;;;;;;;;;19.30;65.40;;;;;;10580406;28;19950;-72
2021/05/26 09:23:57;;;;;;;;;;;19.90;68.40;;;;;;10580755;28;19931;-69
2021/05/26 09:29:05;;;;;;;;;;;20.30;70.70;;;;;;10580199;28;19928;-68
2021/05/26 09:34:07;;;;;;;;;;;20.30;68.70;;;;;;10579810;28;19927;-67
2021/05/26 09:39:09;;;;;;;;;;;19.60;66.60;;;;;;10579201;28;19998;-67
2021/05/26 09:44:10;;;;;;;;;;;19.00;68.40;;;;;;10577988;28;19930;-66
2021/05/26 09:49:15;;;;;;;;;;;19.10;65.70;;;;;;10578440;28;19932;-65
2021/05/26 09:54:18;;;;;;;;;;;19.60;64.80;;;;;;10578878;28;20411;-67
2021/05/26 09:59:20;;;;;;;;;;;21.00;61.20;;;;;;10579368;28;19924;-67
2021/05/26 10:04:22;;;;;;;;;;;21.30;55.80;;;;;;10579021;28;19978;-67
2021/05/26 10:09:24;;;;;;;;;;;21.90;52.80;;;;;;10579887;28;19931;-67
2021/05/26 10:14:27;;;;;;;;;;;22.10;51.60;;;;;;10579835;28;19931;-66
2021/05/26 10:19:29;;;;;;;;;;;22.10;50.80;;;;;;10578660;28;20371;-67
2021/05/26 10:24:30;;;;;;;;;;;22.70;48.90;;;;;;10577926;28;19924;-67
2021/05/26 10:29:33;;;;;;;;;;;23.40;48.00;;;;;;10578064;28;19927;-69
2021/05/26 10:34:53;;;;;;;;;;;23.50;46.10;;;;;;10577831;28;20053;-68
2021/05/26 10:39:55;;;;;;;;;;;22.90;47.50;;;;;;10577884;28;19962;-68
2021/05/26 10:44:57;;;;;;;;;;;23.00;46.90;;;;;;10576632;28;20272;-68
2021/05/26 10:49:58;;;;;;;;;;;22.80;46.50;;;;;;10577364;28;19930;-69
2021/05/26 10:55:02;;;;;;;;;;;24.30;45.60;;;;;;10577432;28;19945;-68
2021/05/26 11:00:30;;;;;;;;;;;23.90;44.90;;;;;;10581891;28;19924;-69
2021/05/26 11:05:34;;;;;;;;;;;24.20;43.50;;;;;;10530127;28;19928;-68
2021/05/26 11:10:36;;;;;;;;;;;22.30;45.50;;;;;;10577287;28;19971;-69
2021/05/26 11:15:41;;;;;;;;;;;20.50;50.90;;;;;;10576963;28;20018;-69
2021/05/26 11:20:42;;;;;;;;;;;19.50;53.80;;;;;;10579438;28;20483;-68
2021/05/26 11:25:51;;;;;;;;;;;19.10;55.60;;;;;;10593078;28;20505;-68
2021/05/26 11:30:58;;;;;;;;;;;18.80;56.40;;;;;;10580174;28;19963;-68
2021/05/26 11:36:03;;;;;;;;;;;19.30;56.20;;;;;;10576359;28;19923;-68
2021/05/26 11:41:15;;;;;;;;;;;19.60;54.40;;;;;;10575710;28;19924;-68
2021/05/26 11:46:17;;;;;;;;;;;20.30;53.40;;;;;;10573172;28;19934;-69
2021/05/26 11:51:23;;;;;;;;;;;20.70;51.10;;;;;;10573681;28;19927;-69
2021/05/26 11:56:25;;;;;;;;;;;21.30;49.50;;;;;;10573440;28;20344;-69
2021/05/26 12:01:29;;;;;;;;;;;22.00;48.00;;;;;;10573611;28;19934;-69
2021/05/26 12:06:33;;;;;;;;;;;22.10;46.10;;;;;;10573415;28;19981;-69
2021/05/26 12:11:35;;;;;;;;;;;22.10;46.30;;;;;;10573579;28;20004;-69
2021/05/26 12:16:37;;;;;;;;;;;25.70;47.00;;;;;;10573666;28;19928;-69
2021/05/26 12:21:38;;;;;;;;;;;22.40;44.10;;;;;;10573991;28;19970;-69
2021/05/26 12:26:45;;;;;;;;;;;22.70;45.70;;;;;;10573810;28;20015;-69
2021/05/26 12:31:46;;;;;;;;;;;21.80;45.60;;;;;;10579824;28;20437;-70
2021/05/26 12:36:47;;;;;;;;;;;20.90;47.40;;;;;;10581627;28;19972;-69
2021/05/26 12:41:51;;;;;;;;;;;20.20;49.30;;;;;;10580737;28;19928;-69
2021/05/26 12:46:53;;;;;;;;;;;20.40;50.70;;;;;;10580768;28;19928;-68
2021/05/26 12:51:54;;;;;;;;;;;20.60;49.20;;;;;;10581598;28;19959;-68
2021/05/26 12:57:06;;;;;;;;;;;20.00;51.10;;;;;;10582096;28;20581;-68
2021/05/26 13:02:08;;;;;;;;;;;20.00;51.10;;;;;;10581245;28;20443;-66
2021/05/26 13:07:22;;;;;;;;;;;20.30;50.80;;;;;;10581081;28;19924;-67
2021/05/26 13:12:25;;;;;;;;;;;20.70;50.40;;;;;;10580841;28;19924;-66
2021/05/26 13:17:27;;;;;;;;;;;20.50;50.50;;;;;;10581381;28;20697;-67
2021/05/26 13:22:28;;;;;;;;;;;20.10;51.50;;;;;;10583978;28;20279;-66
2021/05/26 13:27:30;;;;;;;;;;;20.30;50.50;;;;;;10585067;28;19927;-66
2021/05/26 13:32:32;;;;;;;;;;;20.20;51.40;;;;;;10580956;28;19934;-66
2021/05/26 13:37:33;;;;;;;;;;;20.10;51.50;;;;;;10580279;28;19934;-66
2021/05/26 13:42:35;;;;;;;;;;;20.00;51.10;;;;;;10579289;28;19971;-66
2021/05/26 13:47:36;;;;;;;;;;;19.90;52.40;;;;;;10580011;28;19932;-69
2021/05/26 13:52:38;;;;;;;;;;;19.50;53.60;;;;;;10579810;28;19923;-66
2021/05/26 13:57:40;;;;;;;;;;;19.20;55.50;;;;;;10579645;28;19923;-65
2021/05/26 14:02:41;;;;;;;;;;;18.70;57.30;;;;;;10579156;28;19931;-65
2021/05/26 14:07:42;;;;;;;;;;;18.30;58.00;;;;;;10581870;28;19978;-66
2021/05/26 14:12:46;;;;;;;;;;;18.10;60.30;;;;;;10584351;28;20646;-66
2021/05/26 14:17:47;;;;;;;;;;;17.80;61.10;;;;;;10578940;28;19924;-66
2021/05/26 14:22:49;;;;;;;;;;;17.30;63.00;;;;;;10578006;28;20017;-64
2021/05/26 14:27:51;;;;;;;;;;;16.90;64.90;;;;;;10578244;28;19978;-65
2021/05/26 14:32:52;;;;;;;;;;;16.30;67.20;;;;;;10579251;28;20379;-68
2021/05/26 14:37:57;;;;;;;;;;;15.90;69.90;;;;;;10580279;28;19977;-65
2021/05/26 14:43:00;;;;;;;;;;;15.60;73.70;;;;;;10576363;28;19928;-65
2021/05/26 14:48:02;;;;;;;;;;;15.40;76.40;;;;;;10577482;28;19927;-68
2021/05/26 14:53:03;;;;;;;;;;;15.10;79.20;;;;;;10575456;28;19927;-68
2021/05/26 14:58:05;;;;;;;;;;;14.90;81.90;;;;;;10575621;28;20334;-68
2021/05/26 15:03:08;;;;;;;;;;;11.90;83.60;;;;;;10575275;28;21437;-69
2021/05/26 15:08:09;;;;;;;;;;;14.60;91.80;;;;;;10576685;28;20014;-68
2021/05/26 15:13:11;;;;;;;;;;;14.30;95.00;;;;;;10576556;28;19930;-68
2021/05/26 15:18:13;;;;;;;;;;;13.80;97.10;;;;;;10575915;28;20360;-68
2021/05/26 15:23:14;;;;;;;;;;;13.60;99.70;;;;;;10575214;28;19924;-66
2021/05/26 15:28:16;;;;;;;;;;;13.40;99.90;;;;;;10575455;28;20038;-66
2021/05/26 15:33:17;;;;;;;;;;;13.10;99.90;;;;;;10576164;28;20374;-67
2021/05/26 15:38:18;;;;;;;;;;;13.00;99.90;;;;;;10575865;28;19971;-66
2021/05/26 15:43:20;;;;;;;;;;;12.80;99.90;;;;;;10574630;28;19924;-67
2021/05/26 15:48:21;;;;;;;;;;;12.30;99.90;;;;;;10575083;28;19928;-68
2021/05/26 15:53:23;;;;;;;;;;;12.00;99.90;;;;;;10575252;28;20376;-68
2021/05/26 15:58:25;;;;;;;;;;;11.90;99.90;;;;;;10574693;28;19934;-65
2021/05/26 16:03:26;;;;;;;;;;;12.00;99.90;;;;;;10576386;28;19928;-66
2021/05/26 16:08:27;;;;;;;;;;;12.10;99.90;;;;;;10583386;28;19946;-66
2021/05/26 16:13:29;;;;;;;;;;;12.10;99.90;;;;;;10583974;28;19924;-65
2021/05/26 16:18:30;;;;;;;;;;;12.10;99.90;;;;;;10583612;28;20007;-65
2021/05/26 16:23:31;;;;;;;;;;;15.30;99.90;;;;;;10583567;28;19943;-66
2021/05/26 16:28:38;;;;;;;;;;;11.80;99.90;;;;;;10582070;28;20011;-66
2021/05/26 16:33:39;;;;;;;;;;;11.70;99.90;;;;;;10581980;28;19966;-66
2021/05/26 16:38:40;;;;;;;;;;;11.60;99.90;;;;;;10581883;28;19924;-66
2021/05/26 16:43:47;;;;;;;;;;;11.60;99.90;;;;;;10580945;28;19934;-66
2021/05/26 16:48:48;;;;;;;;;;;11.50;99.90;;;;;;10581573;28;19924;-66
2021/05/26 16:53:49;;;;;;;;;;;11.40;99.90;;;;;;10581599;28;19923;-66
2021/05/26 16:58:51;;;;;;;;;;;11.40;99.90;;;;;;10581717;28;19930;-66
2021/05/26 17:03:53;;;;;;;;;;;11.30;99.90;;;;;;10581680;28;20030;-66
2021/05/26 17:08:55;;;;;;;;;;;11.30;99.90;;;;;;10581688;28;19923;-67
2021/05/26 17:13:58;;;;;;;;;;;11.30;99.90;;;;;;10581264;28;19976;-66
2021/05/26 17:18:59;;;;;;;;;;;11.30;99.90;;;;;;10580143;28;19974;-67
2021/05/26 17:24:03;;;;;;;;;;;11.40;99.90;;;;;;10580584;28;19951;-67
2021/05/26 17:29:06;;;;;;;;;;;11.20;99.90;;;;;;10582545;28;19927;-66
2021/05/26 17:34:07;;;;;;;;;;;11.10;99.90;;;;;;10581048;28;19924;-66
2021/05/26 17:39:08;;;;;;;;;;;11.30;99.90;;;;;;10580471;28;20006;-66
2021/05/26 17:44:11;;;;;;;;;;;11.40;99.90;;;;;;10579282;28;19924;-65
2021/05/26 17:49:12;;;;;;;;;;;11.50;99.90;;;;;;10579724;28;19940;-65
2021/05/26 17:54:14;;;;;;;;;;;11.50;99.90;;;;;;10579207;28;19924;-66
2021/05/26 17:59:16;;;;;;;;;;;11.50;99.90;;;;;;10578517;28;19930;-67
2021/05/26 18:04:18;;;;;;;;;;;11.50;99.90;;;;;;10578563;28;20352;-68
2021/05/26 18:09:20;;;;;;;;;;;11.40;99.90;;;;;;10577625;28;19950;-67
2021/05/26 18:14:22;;;;;;;;;;;11.50;99.90;;;;;;10577844;28;19928;-67
2021/05/26 18:19:23;;;;;;;;;;;11.50;99.90;;;;;;10577910;28;19930;-67
2021/05/26 18:24:24;;;;;;;;;;;11.50;99.90;;;;;;10576983;28;20381;-65
2021/05/26 18:29:26;;;;;;;;;;;11.50;99.90;;;;;;10576808;28;20400;-67
2021/05/26 18:34:27;;;;;;;;;;;11.50;99.90;;;;;;10577264;28;19971;-66
2021/05/26 18:39:28;;;;;;;;;;;11.50;99.90;;;;;;10577007;28;20015;-64
2021/05/26 18:44:30;;;;;;;;;;;11.40;99.90;;;;;;10576088;28;20635;-65
2021/05/26 18:49:31;;;;;;;;;;;11.50;99.90;;;;;;10576436;28;20002;-65
2021/05/26 18:54:32;;;;;;;;;;;11.50;99.90;;;;;;10576260;28;19938;-65
2021/05/26 18:59:34;;;;;;;;;;;11.60;99.90;;;;;;10575682;28;19946;-65
2021/05/26 19:04:36;;;;;;;;;;;11.40;99.90;;;;;;10576177;28;20003;-66
2021/05/26 19:09:37;;;;;;;;;;;11.40;99.90;;;;;;10575894;28;20409;-66
2021/05/26 19:14:40;;;;;;;;;;;11.40;99.90;;;;;;10575801;28;20360;-66
2021/05/26 19:19:41;;;;;;;;;;;11.30;99.90;;;;;;10575772;28;19971;-66
2021/05/26 19:24:42;;;;;;;;;;;11.30;99.90;;;;;;10574789;28;20381;-66
2021/05/26 19:29:44;;;;;;;;;;;11.20;99.90;;;;;;10575444;28;20022;-66
2021/05/26 19:34:46;;;;;;;;;;;11.20;99.90;;;;;;10575141;28;20019;-66
2021/05/26 19:39:48;;;;;;;;;;;11.20;99.90;;;;;;10574448;28;19927;-67
2021/05/26 19:44:50;;;;;;;;;;;11.20;99.90;;;;;;10574630;28;19928;-66
2021/05/26 19:49:51;;;;;;;;;;;11.20;99.90;;;;;;10575555;28;19934;-65
2021/05/26 19:54:52;;;;;;;;;;;11.10;99.90;;;;;;10576007;28;20407;-65
2021/05/26 19:59:54;;;;;;;;;;;11.00;99.90;;;;;;10574421;28;19928;-65
2021/05/26 20:04:55;;;;;;;;;;;11.00;99.90;;;;;;10574674;28;20014;-65
2021/05/26 20:09:57;;;;;;;;;;;10.90;99.90;;;;;;10574578;28;20439;-65
2021/05/26 20:15:01;;;;;;;;;;;10.90;99.90;;;;;;10574188;28;19957;-65
2021/05/26 20:20:04;;;;;;;;;;;10.90;99.90;;;;;;10573843;28;19924;-66
2021/05/26 20:25:06;;;;;;;;;;;10.90;99.90;;;;;;10572031;28;19977;-66
2021/05/26 20:30:09;;;;;;;;;;;10.90;99.90;;;;;;10574566;28;20319;-66
2021/05/26 20:35:12;;;;;;;;;;;11.00;99.90;;;;;;10571852;28;20023;-66
2021/05/26 20:40:13;;;;;;;;;;;10.90;99.90;;;;;;10572908;28;20105;-67
2021/05/26 20:45:17;;;;;;;;;;;11.00;99.90;;;;;;10572824;28;19924;-67
2021/05/26 20:50:18;;;;;;;;;;;10.90;99.90;;;;;;10574231;28;20024;-66
2021/05/26 20:55:20;;;;;;;;;;;10.90;99.90;;;;;;10580908;28;19924;-67
2021/05/26 21:00:25;;;;;;;;;;;10.80;99.90;;;;;;10580093;28;20765;-66
2021/05/26 21:05:26;;;;;;;;;;;10.80;99.90;;;;;;10581075;28;20035;-66
2021/05/26 21:10:27;;;;;;;;;;;10.80;99.90;;;;;;10580622;28;19943;-66
2021/05/26 21:15:29;;;;;;;;;;;10.80;99.90;;;;;;10579898;28;19927;-67
2021/05/26 21:20:31;;;;;;;;;;;10.80;99.90;;;;;;10578744;28;19924;-66
2021/05/26 21:25:32;;;;;;;;;;;10.80;99.90;;;;;;10579253;28;19928;-67
2021/05/26 21:30:34;;;;;;;;;;;10.80;99.90;;;;;;10578161;28;20420;-66
2021/05/26 21:35:35;;;;;;;;;;;10.80;99.90;;;;;;10575899;28;19927;-66
2021/05/26 21:40:37;;;;;;;;;;;10.70;99.90;;;;;;10575751;28;19934;-67
2021/05/26 21:45:39;;;;;;;;;;;10.70;99.90;;;;;;10575372;28;20011;-67
2021/05/26 21:50:40;;;;;;;;;;;10.70;99.90;;;;;;10579076;28;19928;-66
2021/05/26 21:55:41;;;;;;;;;;;10.60;99.90;;;;;;10578119;28;19927;-66
2021/05/26 22:00:43;;;;;;;;;;;10.60;99.90;;;;;;10579193;28;20014;-66
2021/05/26 22:05:45;;;;;;;;;;;10.60;99.90;;;;;;10580078;28;19931;-66
2021/05/26 22:10:46;;;;;;;;;;;10.50;99.90;;;;;;10579397;28;19928;-66
2021/05/26 22:15:49;;;;;;;;;;;10.50;99.90;;;;;;10577845;28;19932;-65
2021/05/26 22:20:50;;;;;;;;;;;10.40;99.90;;;;;;10579017;28;19923;-65
2021/05/26 22:25:51;;;;;;;;;;;10.40;99.90;;;;;;10579264;28;19927;-65
2021/05/26 22:30:53;;;;;;;;;;;10.30;99.90;;;;;;10578631;28;19936;-65
2021/05/26 22:35:56;;;;;;;;;;;10.30;99.90;;;;;;10577083;28;19930;-65
2021/05/26 22:40:57;;;;;;;;;;;10.40;99.90;;;;;;10576892;28;19943;-65
2021/05/26 22:46:11;;;;;;;;;;;10.40;99.90;;;;;;10576117;28;19924;-65
2021/05/26 22:51:12;;;;;;;;;;;10.40;99.90;;;;;;10576996;28;20365;-66
2021/05/26 22:56:13;;;;;;;;;;;10.40;99.90;;;;;;10577961;28;19927;-65
2021/05/26 23:01:15;;;;;;;;;;;10.40;99.90;;;;;;10576754;28;20431;-66
2021/05/26 23:06:16;;;;;;;;;;;10.40;99.90;;;;;;10574507;28;20342;-66
2021/05/26 23:11:18;;;;;;;;;;;10.40;99.90;;;;;;10576966;28;19987;-65
2021/05/26 23:16:20;;;;;;;;;;;10.40;99.90;;;;;;10577763;28;19927;-65
2021/05/26 23:21:21;;;;;;;;;;;10.40;99.90;;;;;;10578656;28;19924;-65
2021/05/26 23:26:22;;;;;;;;;;;10.40;99.90;;;;;;10578299;28;20026;-65
2021/05/26 23:31:24;;;;;;;;;;;10.30;99.90;;;;;;10577837;28;19968;-65
2021/05/26 23:36:25;;;;;;;;;;;10.30;99.90;;;;;;10577891;28;19972;-65
2021/05/26 23:41:26;;;;;;;;;;;10.80;99.90;;;;;;10576266;28;19928;-66
2021/05/26 23:46:28;;;;;;;;;;;10.20;99.90;;;;;;10574631;28;20014;-65
2021/05/26 23:51:29;;;;;;;;;;;10.10;99.90;;;;;;10575775;28;19946;-65
2021/05/26 23:56:30;;;;;;;;;;;10.10;99.90;;;;;;10575791;28;19923;-65
